Time;durP1;ratioP1;P1;durP2;ratioP2;P2;SDS_P1;SDS_P2;PMS_P1;PMS_P2;Temp;Humidity;BMP_temperature;BMP_pressure;BME280_temperature;BME280_humidity;BME280_pressure;Samples;Min_cycle;Max_cycle;Signal;HPM_P1;HPM_P2
2023/10/15 00:00:40;;;;;;;5.10;0.50;;;;;;;;;;5055334;28;20237;-72
2023/10/15 00:03:07;;;;;;;1.92;0.60;;;;;;;;;;5050093;28;20189;-72
2023/10/15 00:05:32;;;;;;;1.60;0.45;;;;;;;;;;5050623;28;20201;-73
2023/10/15 00:07:58;;;;;;;4.13;0.63;;;;;;;;;;5067005;28;20569;-72
2023/10/15 00:10:25;;;;;;;5.20;0.40;;;;;;;;;;5058998;28;20177;-72
2023/10/15 00:12:53;;;;;;;3.53;0.50;;;;;;;;;;5055860;28;20196;-72
2023/10/15 00:15:20;;;;;;;1.23;0.30;;;;;;;;;;5059686;28;20246;-72
2023/10/15 00:17:50;;;;;;;2.25;0.52;;;;;;;;;;5056325;28;20258;-72
2023/10/15 00:20:17;;;;;;;2.80;0.50;;;;;;;;;;5054429;28;20215;-72
2023/10/15 00:22:48;;;;;;;2.72;0.47;;;;;;;;;;5057871;28;20189;-72
2023/10/15 00:25:14;;;;;;;4.65;0.60;;;;;;;;;;5049298;28;20197;-71
2023/10/15 00:27:52;;;;;;;4.45;0.77;;;;;;;;;;5065327;28;20659;-72
2023/10/15 00:30:19;;;;;;;3.90;0.70;;;;;;;;;;5061534;28;20208;-72
2023/10/15 00:32:45;;;;;;;2.75;0.50;;;;;;;;;;5067905;28;20193;-71
2023/10/15 00:35:13;;;;;;;6.47;0.52;;;;;;;;;;5077926;28;20192;-70
2023/10/15 00:37:51;;;;;;;2.83;0.38;;;;;;;;;;5055792;28;20189;-71
2023/10/15 00:40:20;;;;;;;3.90;0.50;;;;;;;;;;5059395;28;20204;-71
2023/10/15 00:42:45;;;;;;;3.75;0.45;;;;;;;;;;5060766;28;20186;-71
2023/10/15 00:45:14;;;;;;;4.05;0.70;;;;;;;;;;5047289;28;20185;-71
2023/10/15 00:47:43;;;;;;;4.53;1.13;;;;;;;;;;5053673;28;20185;-71
2023/10/15 00:50:09;;;;;;;2.95;0.40;;;;;;;;;;5037952;28;20734;-71
2023/10/15 00:52:42;;;;;;;1.58;0.40;;;;;;;;;;5062544;28;20215;-71
2023/10/15 00:55:16;;;;;;;5.72;0.55;;;;;;;;;;5056911;28;20195;-72
2023/10/15 00:57:43;;;;;;;4.20;0.67;;;;;;;;;;5067521;28;20756;-72
2023/10/15 01:00:39;;;;;;;4.35;0.80;;;;;;;;;;5069208;28;20229;-72
2023/10/15 01:03:01;;;;;;;1.75;0.60;;;;;;;;;;5061795;28;20216;-72
2023/10/15 01:05:27;;;;;;;5.40;0.73;;;;;;;;;;5060695;28;20264;-72
2023/10/15 01:07:54;;;;;;;3.53;0.60;;;;;;;;;;5062386;28;20644;-71
2023/10/15 01:10:32;;;;;;;3.47;0.52;;;;;;;;;;5067014;28;20601;-71
2023/10/15 01:13:05;;;;;;;0.82;0.30;;;;;;;;;;5063678;28;20184;-71
2023/10/15 01:15:34;;;;;;;1.10;0.40;;;;;;;;;;5088728;28;20260;-72
2023/10/15 01:18:06;;;;;;;2.50;0.50;;;;;;;;;;5068290;28;20181;-72
2023/10/15 01:20:36;;;;;;;4.55;0.45;;;;;;;;;;5055471;28;20234;-72
2023/10/15 01:23:02;;;;;;;3.70;0.52;;;;;;;;;;5056606;28;20200;-72
2023/10/15 01:25:32;;;;;;;4.47;0.65;;;;;;;;;;5048056;28;20181;-71
2023/10/15 01:28:00;;;;;;;2.47;0.50;;;;;;;;;;5080996;28;20254;-73
2023/10/15 01:30:35;;;;;;;2.23;0.90;;;;;;;;;;5094467;28;20224;-74
2023/10/15 01:33:06;;;;;;;4.22;0.63;;;;;;;;;;5054328;28;20656;-71
2023/10/15 01:35:32;;;;;;;3.00;0.57;;;;;;;;;;5066697;28;20196;-72
2023/10/15 01:38:10;;;;;;;4.13;0.63;;;;;;;;;;5067758;28;20199;-72
2023/10/15 01:40:42;;;;;;;1.17;0.53;;;;;;;;;;5048762;28;20212;-71
2023/10/15 01:43:14;;;;;;;4.53;0.60;;;;;;;;;;5048789;28;20308;-72
2023/10/15 01:45:41;;;;;;;3.03;0.50;;;;;;;;;;5051110;28;20535;-72
2023/10/15 01:48:16;;;;;;;3.63;0.60;;;;;;;;;;5059390;28;20213;-72
2023/10/15 01:53:07;;;;;;;4.35;0.65;;;;;;;;;;5068573;28;20185;-72
2023/10/15 01:55:36;;;;;;;4.50;0.70;;;;;;;;;;5063152;28;20189;-72
2023/10/15 01:58:04;;;;;;;2.27;0.57;;;;;;;;;;5053791;28;20272;-71
2023/10/15 02:03:07;;;;;;;4.22;0.85;;;;;;;;;;5051796;28;20190;-72
2023/10/15 02:05:42;;;;;;;3.10;0.63;;;;;;;;;;5060538;28;20220;-72
2023/10/15 02:08:13;;;;;;;1.93;0.43;;;;;;;;;;5057834;28;20235;-71
2023/10/15 02:10:39;;;;;;;3.33;0.50;;;;;;;;;;5075579;28;20579;-71
2023/10/15 02:13:08;;;;;;;2.23;0.67;;;;;;;;;;5063436;28;20506;-72
2023/10/15 02:15:38;;;;;;;1.93;0.40;;;;;;;;;;5059262;28;20268;-73
2023/10/15 02:18:05;;;;;;;2.40;0.60;;;;;;;;;;5053689;28;20207;-72
2023/10/15 02:23:20;;;;;;;2.90;0.60;;;;;;;;;;5050586;28;20181;-72
2023/10/15 02:25:58;;;;;;;2.20;0.40;;;;;;;;;;5097546;28;20197;-72
2023/10/15 02:28:44;;;;;;;3.77;0.60;;;;;;;;;;5078463;28;20193;-72
2023/10/15 02:33:35;;;;;;;3.50;0.43;;;;;;;;;;5054756;28;20211;-72
2023/10/15 02:36:02;;;;;;;6.38;0.88;;;;;;;;;;5097494;28;20183;-73
2023/10/15 02:38:33;;;;;;;4.10;0.67;;;;;;;;;;5059769;28;20566;-72
2023/10/15 02:41:40;;;;;;;1.57;0.60;;;;;;;;;;5063088;28;20269;-73
2023/10/15 02:43:56;;;;;;;3.17;0.60;;;;;;;;;;5049414;28;20204;-72
2023/10/15 02:46:36;;;;;;;3.37;0.50;;;;;;;;;;5057982;28;20193;-72
2023/10/15 02:49:01;;;;;;;0.47;0.40;;;;;;;;;;5051443;28;20695;-72
2023/10/15 02:51:27;;;;;;;2.67;0.40;;;;;;;;;;5054221;28;20217;-72
2023/10/15 02:53:54;;;;;;;3.07;0.43;;;;;;;;;;5059149;28;20190;-72
2023/10/15 02:56:21;;;;;;;2.80;0.47;;;;;;;;;;5064305;28;20201;-71
2023/10/15 02:58:48;;;;;;;2.77;0.60;;;;;;;;;;5062822;28;20230;-72
2023/10/15 03:01:20;;;;;;;2.83;0.70;;;;;;;;;;5065338;28;20251;-72
2023/10/15 03:03:49;;;;;;;2.53;0.60;;;;;;;;;;5063380;28;20232;-72
2023/10/15 03:06:24;;;;;;;4.17;0.70;;;;;;;;;;5063498;28;20196;-71
2023/10/15 03:08:51;;;;;;;2.03;0.57;;;;;;;;;;5062943;28;20686;-72
2023/10/15 03:11:19;;;;;;;4.07;0.80;;;;;;;;;;5094672;28;20189;-72
2023/10/15 03:13:49;;;;;;;1.43;0.63;;;;;;;;;;5055280;28;20197;-72
2023/10/15 03:16:16;;;;;;;1.37;0.40;;;;;;;;;;5066452;28;20261;-72
2023/10/15 03:18:42;;;;;;;3.50;0.70;;;;;;;;;;5058020;28;20268;-72
2023/10/15 03:21:15;;;;;;;7.20;0.80;;;;;;;;;;5065412;28;20304;-73
2023/10/15 03:23:42;;;;;;;2.60;0.50;;;;;;;;;;5067561;28;20196;-77
2023/10/15 03:26:17;;;;;;;1.03;0.50;;;;;;;;;;5054268;28;20200;-77
2023/10/15 03:28:44;;;;;;;2.73;0.60;;;;;;;;;;5052532;28;20185;-77
2023/10/15 03:31:14;;;;;;;2.58;0.50;;;;;;;;;;5092379;28;20184;-78
2023/10/15 03:33:41;;;;;;;3.50;0.63;;;;;;;;;;5048558;28;20725;-77
2023/10/15 03:36:12;;;;;;;2.13;0.43;;;;;;;;;;5053551;28;20185;-77
2023/10/15 03:38:38;;;;;;;5.00;0.50;;;;;;;;;;5063067;28;20188;-76
2023/10/15 03:41:21;;;;;;;1.50;0.50;;;;;;;;;;5069939;28;20219;-75
2023/10/15 03:43:51;;;;;;;2.97;1.30;;;;;;;;;;5058075;28;20193;-76
2023/10/15 03:46:19;;;;;;;1.50;0.47;;;;;;;;;;5050384;28;20251;-76
2023/10/15 03:48:47;;;;;;;1.43;0.33;;;;;;;;;;5069274;28;20603;-76
2023/10/15 03:51:23;;;;;;;5.22;0.40;;;;;;;;;;5087298;28;20185;-73
2023/10/15 03:53:51;;;;;;;1.57;0.53;;;;;;;;;;5058060;28;20594;-74
2023/10/15 03:56:27;;;;;;;4.97;0.53;;;;;;;;;;5053810;28;20269;-75
2023/10/15 03:58:53;;;;;;;2.63;0.40;;;;;;;;;;5059500;28;20228;-72
2023/10/15 04:01:19;;;;;;;1.57;0.60;;;;;;;;;;5065736;28;20561;-72
2023/10/15 04:03:47;;;;;;;2.37;0.63;;;;;;;;;;5058871;28;20189;-74
2023/10/15 04:06:14;;;;;;;1.43;0.40;;;;;;;;;;5084647;28;20203;-73
2023/10/15 04:08:59;;;;;;;3.17;0.60;;;;;;;;;;5048540;28;20197;-69
2023/10/15 04:11:29;;;;;;;1.43;0.60;;;;;;;;;;5054361;28;20191;-72
2023/10/15 04:13:56;;;;;;;1.20;0.40;;;;;;;;;;5057677;28;20234;-73
2023/10/15 04:16:22;;;;;;;2.80;0.50;;;;;;;;;;5081724;28;20224;-73
2023/10/15 04:18:48;;;;;;;4.03;0.52;;;;;;;;;;5069788;28;20192;-72
2023/10/15 04:21:16;;;;;;;3.30;0.47;;;;;;;;;;5063854;28;20268;-73
2023/10/15 04:23:45;;;;;;;2.22;0.40;;;;;;;;;;5060930;28;20203;-72
2023/10/15 04:26:14;;;;;;;3.72;1.00;;;;;;;;;;5058380;28;20194;-71
2023/10/15 04:28:40;;;;;;;2.10;0.65;;;;;;;;;;5060586;28;20255;-72
2023/10/15 04:31:11;;;;;;;1.90;0.60;;;;;;;;;;5053870;28;20280;-72
2023/10/15 04:33:41;;;;;;;2.30;0.50;;;;;;;;;;5085270;28;20266;-72
2023/10/15 04:36:09;;;;;;;3.00;0.50;;;;;;;;;;5049280;28;20200;-72
2023/10/15 04:38:36;;;;;;;1.63;0.70;;;;;;;;;;5051433;28;20542;-72
2023/10/15 04:41:03;;;;;;;3.53;0.50;;;;;;;;;;5066640;28;20213;-72
2023/10/15 04:43:29;;;;;;;4.10;0.80;;;;;;;;;;5056375;28;20188;-72
2023/10/15 04:45:57;;;;;;;1.33;0.73;;;;;;;;;;5052942;28;20239;-72
2023/10/15 04:48:27;;;;;;;2.10;0.57;;;;;;;;;;5061268;28;20191;-72
2023/10/15 04:50:53;;;;;;;5.28;0.80;;;;;;;;;;5056701;28;20227;-72
2023/10/15 04:55:47;;;;;;;1.95;0.65;;;;;;;;;;5056719;28;20213;-73
2023/10/15 04:58:13;;;;;;;3.23;0.80;;;;;;;;;;5095747;28;20237;-75
2023/10/15 05:00:43;;;;;;;5.57;0.77;;;;;;;;;;5082299;28;20313;-73
2023/10/15 05:03:09;;;;;;;1.47;0.47;;;;;;;;;;5085030;28;20204;-76
2023/10/15 05:05:34;;;;;;;4.43;0.80;;;;;;;;;;5058187;28;20692;-75
2023/10/15 05:08:00;;;;;;;2.10;0.60;;;;;;;;;;5051949;28;20276;-72
2023/10/15 05:10:34;;;;;;;3.00;0.60;;;;;;;;;;5057128;28;20217;-72
2023/10/15 05:13:00;;;;;;;2.23;0.47;;;;;;;;;;5048857;28;20211;-73
2023/10/15 05:15:26;;;;;;;3.53;0.80;;;;;;;;;;5065763;28;20648;-77
2023/10/15 05:17:51;;;;;;;3.03;0.57;;;;;;;;;;5057151;28;20185;-76
2023/10/15 05:20:20;;;;;;;3.83;0.70;;;;;;;;;;5054270;28;20236;-76
2023/10/15 05:22:48;;;;;;;2.30;0.50;;;;;;;;;;5050588;28;20192;-77
2023/10/15 05:25:20;;;;;;;2.80;0.47;;;;;;;;;;5057813;28;20271;-75
2023/10/15 05:27:49;;;;;;;3.73;0.63;;;;;;;;;;5053144;28;20196;-76
2023/10/15 05:30:15;;;;;;;4.17;0.80;;;;;;;;;;5055681;28;20641;-76
2023/10/15 05:32:44;;;;;;;3.30;0.53;;;;;;;;;;5084185;28;20249;-75
2023/10/15 05:35:10;;;;;;;4.97;0.50;;;;;;;;;;5063715;28;20206;-75
2023/10/15 05:37:36;;;;;;;3.63;0.40;;;;;;;;;;5064232;28;20716;-75
2023/10/15 05:40:06;;;;;;;2.77;0.70;;;;;;;;;;5091912;28;20276;-74
2023/10/15 05:42:32;;;;;;;3.83;0.83;;;;;;;;;;5050288;28;20186;-73
2023/10/15 05:44:58;;;;;;;5.23;0.63;;;;;;;;;;5056409;28;20193;-73
2023/10/15 05:47:23;;;;;;;3.50;0.60;;;;;;;;;;5050457;28;20265;-73
2023/10/15 05:49:49;;;;;;;5.47;0.60;;;;;;;;;;5062500;28;20193;-74
2023/10/15 05:52:15;;;;;;;4.63;0.70;;;;;;;;;;5055684;28;20181;-74
2023/10/15 05:54:40;;;;;;;4.67;1.17;;;;;;;;;;5058978;28;20182;-74
2023/10/15 05:57:06;;;;;;;5.77;0.63;;;;;;;;;;5086193;28;20196;-74
2023/10/15 05:59:34;;;;;;;1.87;0.40;;;;;;;;;;5049794;28;20673;-74
2023/10/15 06:02:00;;;;;;;4.00;0.90;;;;;;;;;;5066585;28;20221;-74
2023/10/15 06:04:26;;;;;;;5.17;0.70;;;;;;;;;;5063184;28;20216;-74
2023/10/15 06:06:52;;;;;;;3.00;0.40;;;;;;;;;;5067607;28;20213;-74
2023/10/15 06:09:17;;;;;;;2.43;0.53;;;;;;;;;;5053057;28;20213;-73
2023/10/15 06:11:42;;;;;;;1.60;0.60;;;;;;;;;;5052049;28;20259;-73
2023/10/15 06:14:08;;;;;;;4.47;1.00;;;;;;;;;;5060315;28;20298;-73
2023/10/15 06:16:35;;;;;;;6.03;1.13;;;;;;;;;;5055171;28;20212;-74
2023/10/15 06:19:00;;;;;;;4.13;0.70;;;;;;;;;;5036099;28;20680;-74
2023/10/15 06:21:26;;;;;;;3.57;0.60;;;;;;;;;;5049961;28;20219;-75
2023/10/15 06:23:52;;;;;;;6.70;0.80;;;;;;;;;;5071975;28;20231;-74
2023/10/15 06:26:18;;;;;;;7.47;2.83;;;;;;;;;;5058488;28;20746;-74
2023/10/15 06:28:43;;;;;;;5.67;1.77;;;;;;;;;;5078317;28;20276;-74
2023/10/15 06:31:11;;;;;;;3.20;1.07;;;;;;;;;;5057565;28;20189;-74
2023/10/15 06:33:40;;;;;;;3.73;1.53;;;;;;;;;;5091520;28;20193;-74
2023/10/15 06:36:07;;;;;;;8.43;2.83;;;;;;;;;;5058174;28;20200;-74
2023/10/15 06:38:33;;;;;;;3.27;1.40;;;;;;;;;;5057283;28;20185;-73
2023/10/15 06:41:00;;;;;;;7.00;1.37;;;;;;;;;;5066928;28;20209;-73
2023/10/15 06:43:25;;;;;;;3.17;0.90;;;;;;;;;;5045973;28;20188;-73
2023/10/15 06:45:51;;;;;;;4.60;1.07;;;;;;;;;;5064209;28;20188;-73
2023/10/15 06:48:18;;;;;;;4.03;0.90;;;;;;;;;;5051467;28;20247;-72
2023/10/15 06:50:43;;;;;;;3.83;0.93;;;;;;;;;;5087718;28;20189;-72
2023/10/15 06:53:09;;;;;;;3.50;0.90;;;;;;;;;;5084411;28;20201;-73
2023/10/15 06:55:35;;;;;;;4.13;1.03;;;;;;;;;;5067014;28;20270;-73
2023/10/15 06:58:01;;;;;;;3.37;1.33;;;;;;;;;;5067803;28;20186;-72
2023/10/15 07:00:27;;;;;;;3.17;1.20;;;;;;;;;;5053623;28;20240;-73
2023/10/15 07:02:54;;;;;;;6.37;1.30;;;;;;;;;;5065546;28;20240;-75
2023/10/15 07:05:21;;;;;;;4.00;1.40;;;;;;;;;;5057416;28;20188;-74
2023/10/15 07:07:47;;;;;;;2.60;1.10;;;;;;;;;;5063141;28;20213;-73
2023/10/15 07:10:16;;;;;;;4.83;1.00;;;;;;;;;;5055492;28;20213;-73
2023/10/15 07:12:47;;;;;;;4.43;1.10;;;;;;;;;;5060688;28;20199;-73
2023/10/15 07:15:15;;;;;;;3.40;1.07;;;;;;;;;;5053482;28;20228;-73
2023/10/15 07:17:42;;;;;;;1.97;1.03;;;;;;;;;;5064043;28;20197;-73
2023/10/15 07:20:14;;;;;;;3.78;1.30;;;;;;;;;;5063531;28;20305;-73
2023/10/15 07:22:47;;;;;;;4.38;1.08;;;;;;;;;;5050840;28;20665;-71
2023/10/15 07:25:19;;;;;;;4.20;1.00;;;;;;;;;;5061271;28;20518;-73
2023/10/15 07:27:46;;;;;;;5.18;1.73;;;;;;;;;;5058453;28;20215;-73
2023/10/15 07:30:16;;;;;;;3.10;0.80;;;;;;;;;;5057528;28;20695;-73
2023/10/15 07:32:46;;;;;;;6.82;2.08;;;;;;;;;;5068699;28;20218;-73
2023/10/15 07:35:12;;;;;;;4.38;1.00;;;;;;;;;;5053210;28;20299;-73
2023/10/15 07:37:46;;;;;;;1.88;1.00;;;;;;;;;;5058102;28;20283;-73
2023/10/15 07:40:21;;;;;;;3.90;1.00;;;;;;;;;;5055052;28;20243;-73
2023/10/15 07:42:49;;;;;;;6.00;0.80;;;;;;;;;;5050874;28;20555;-73
2023/10/15 07:45:32;;;;;;;2.73;0.70;;;;;;;;;;4987564;28;10000796;-71
2023/10/15 07:48:00;;;;;;;2.17;0.85;;;;;;;;;;5048752;28;20404;-73
2023/10/15 07:50:26;;;;;;;3.20;1.10;;;;;;;;;;5056392;28;20683;-73
2023/10/15 07:52:53;;;;;;;3.00;0.77;;;;;;;;;;5059585;28;20611;-72
2023/10/15 07:55:19;;;;;;;7.33;0.77;;;;;;;;;;5095123;28;20287;-72
2023/10/15 07:57:45;;;;;;;4.30;0.88;;;;;;;;;;5056917;28;20173;-73
2023/10/15 08:00:15;;;;;;;3.03;0.65;;;;;;;;;;5052914;28;20707;-72
2023/10/15 08:02:49;;;;;;;3.07;0.87;;;;;;;;;;5094725;28;20673;-71
2023/10/15 08:05:15;;;;;;;9.23;0.90;;;;;;;;;;5046073;28;20200;-70
2023/10/15 08:07:41;;;;;;;5.35;0.77;;;;;;;;;;5059861;28;20199;-71
2023/10/15 08:10:08;;;;;;;3.85;0.55;;;;;;;;;;5053383;28;20193;-71
2023/10/15 08:12:34;;;;;;;7.13;0.90;;;;;;;;;;5063896;28;20189;-71
2023/10/15 08:14:59;;;;;;;6.50;0.77;;;;;;;;;;5055923;28;20208;-71
2023/10/15 08:17:26;;;;;;;3.10;0.52;;;;;;;;;;5066438;28;20212;-73
2023/10/15 08:19:53;;;;;;;3.08;0.57;;;;;;;;;;5064729;28;20198;-72
2023/10/15 08:22:18;;;;;;;4.07;0.68;;;;;;;;;;5055821;28;20192;-73
2023/10/15 08:24:45;;;;;;;2.03;0.50;;;;;;;;;;5065943;28;20189;-73
2023/10/15 08:27:13;;;;;;;4.90;1.13;;;;;;;;;;5058841;28;20185;-72
2023/10/15 08:29:40;;;;;;;6.78;0.60;;;;;;;;;;5054880;28;20242;-69
2023/10/15 08:32:06;;;;;;;6.05;0.60;;;;;;;;;;5061753;28;20181;-71
2023/10/15 08:34:32;;;;;;;8.35;0.85;;;;;;;;;;5057072;28;21105;-70
2023/10/15 08:36:57;;;;;;;3.10;0.68;;;;;;;;;;5045077;28;20190;-72
2023/10/15 08:39:23;;;;;;;2.85;0.68;;;;;;;;;;5053012;28;20271;-71
2023/10/15 08:41:51;;;;;;;3.80;0.82;;;;;;;;;;5062798;28;20205;-72
2023/10/15 08:44:18;;;;;;;4.32;0.60;;;;;;;;;;5044994;28;20185;-72
2023/10/15 08:46:46;;;;;;;3.83;0.90;;;;;;;;;;5054516;28;20189;-72
2023/10/15 08:49:12;;;;;;;3.45;0.82;;;;;;;;;;5046841;28;20189;-72
2023/10/15 08:51:39;;;;;;;5.82;1.40;;;;;;;;;;5057761;28;20180;-71
2023/10/15 08:54:07;;;;;;;2.45;0.50;;;;;;;;;;5053093;28;20206;-71
2023/10/15 08:56:33;;;;;;;1.90;0.47;;;;;;;;;;5064175;28;20207;-71
2023/10/15 08:59:00;;;;;;;6.18;0.90;;;;;;;;;;5050575;28;20237;-70
2023/10/15 09:01:25;;;;;;;6.88;0.68;;;;;;;;;;5052813;28;20554;-68
2023/10/15 09:03:52;;;;;;;1.23;0.30;;;;;;;;;;5054719;28;20640;-71
2023/10/15 09:06:19;;;;;;;1.83;0.50;;;;;;;;;;5084749;28;20185;-71
2023/10/15 09:08:45;;;;;;;3.00;0.47;;;;;;;;;;5050098;28;20664;-69
2023/10/15 09:11:11;;;;;;;4.30;0.50;;;;;;;;;;5059355;28;20189;-71
2023/10/15 09:13:38;;;;;;;5.30;0.77;;;;;;;;;;5036982;28;20208;-69
2023/10/15 09:16:05;;;;;;;5.97;1.65;;;;;;;;;;5063821;28;20250;-71
2023/10/15 09:18:35;;;;;;;4.60;0.50;;;;;;;;;;5064009;28;20245;-71
2023/10/15 09:21:03;;;;;;;2.67;0.50;;;;;;;;;;5059552;28;20219;-70
2023/10/15 09:23:37;;;;;;;3.38;0.60;;;;;;;;;;5055389;28;20237;-71
2023/10/15 09:26:06;;;;;;;3.78;0.95;;;;;;;;;;5057381;28;20722;-70
2023/10/15 09:28:33;;;;;;;3.85;0.63;;;;;;;;;;5056609;28;20182;-71
2023/10/15 09:31:03;;;;;;;3.28;0.40;;;;;;;;;;5053339;28;20252;-71
2023/10/15 09:33:30;;;;;;;2.38;0.50;;;;;;;;;;5061956;28;20181;-72
2023/10/15 09:35:56;;;;;;;0.85;0.40;;;;;;;;;;5059816;28;20202;-69
2023/10/15 09:38:22;;;;;;;1.75;0.60;;;;;;;;;;5056547;28;20192;-71
2023/10/15 09:40:47;;;;;;;1.40;0.35;;;;;;;;;;5056923;28;20243;-71
2023/10/15 09:43:15;;;;;;;3.63;0.55;;;;;;;;;;5054827;28;20192;-71
2023/10/15 09:45:42;;;;;;;2.90;0.52;;;;;;;;;;5069419;28;20181;-71
2023/10/15 09:48:09;;;;;;;0.93;0.20;;;;;;;;;;5050030;28;20189;-71
2023/10/15 09:50:38;;;;;;;2.65;0.47;;;;;;;;;;5059600;28;20197;-70
2023/10/15 09:53:11;;;;;;;2.85;0.47;;;;;;;;;;5057097;28;20284;-71
2023/10/15 09:55:38;;;;;;;4.38;0.98;;;;;;;;;;5064406;28;20211;-71
2023/10/15 09:58:04;;;;;;;2.97;0.38;;;;;;;;;;5061091;28;20193;-70
2023/10/15 10:03:48;;;;;;;4.05;0.50;;;;;;;;;;5064939;28;20192;-70
2023/10/15 10:06:48;;;;;;;2.47;0.40;;;;;;;;;;5065272;28;20189;-68
2023/10/15 10:09:26;;;;;;;2.05;0.40;;;;;;;;;;5055482;28;20190;-70
2023/10/15 10:12:23;;;;;;;2.45;0.52;;;;;;;;;;5057995;28;20238;-69
2023/10/15 10:14:48;;;;;;;2.08;0.50;;;;;;;;;;5048666;28;20311;-71
2023/10/15 10:17:18;;;;;;;2.45;0.55;;;;;;;;;;5050949;28;20198;-70
2023/10/15 10:19:43;;;;;;;1.88;0.45;;;;;;;;;;5063644;28;20195;-71
2023/10/15 10:22:28;;;;;;;2.83;0.50;;;;;;;;;;5060124;28;20217;-70
2023/10/15 10:25:00;;;;;;;2.08;0.40;;;;;;;;;;5068656;28;20238;-71
2023/10/15 10:27:26;;;;;;;2.17;0.40;;;;;;;;;;5057973;28;20189;-71
2023/10/15 10:29:58;;;;;;;3.20;0.57;;;;;;;;;;5067247;28;20607;-71
2023/10/15 10:32:23;;;;;;;1.17;0.50;;;;;;;;;;5090211;28;20604;-71
2023/10/15 10:35:20;;;;;;;3.80;0.40;;;;;;;;;;5050862;28;20189;-71
2023/10/15 10:38:18;;;;;;;1.95;0.25;;;;;;;;;;5061625;28;20271;-70
2023/10/15 10:41:07;;;;;;;2.78;0.50;;;;;;;;;;5055989;28;20696;-70
2023/10/15 10:43:33;;;;;;;5.40;0.68;;;;;;;;;;5061335;28;20189;-70
2023/10/15 10:46:01;;;;;;;5.70;0.90;;;;;;;;;;5067437;28;20675;-70
2023/10/15 10:48:37;;;;;;;2.65;0.50;;;;;;;;;;5058983;28;20827;-70
2023/10/15 10:51:19;;;;;;;1.33;0.50;;;;;;;;;;5065832;28;20188;-71
2023/10/15 10:54:15;;;;;;;3.95;0.55;;;;;;;;;;5063483;28;20192;-70
2023/10/15 10:56:40;;;;;;;0.93;0.47;;;;;;;;;;5064089;28;20300;-70
2023/10/15 10:59:06;;;;;;;2.95;0.43;;;;;;;;;;5058848;28;20744;-69
2023/10/15 11:01:37;;;;;;;2.85;0.70;;;;;;;;;;5065434;28;20322;-71
2023/10/15 11:04:03;;;;;;;3.05;0.82;;;;;;;;;;5063367;28;20185;-71
2023/10/15 11:06:29;;;;;;;1.60;0.60;;;;;;;;;;5061685;28;20189;-71
2023/10/15 11:08:54;;;;;;;4.80;0.63;;;;;;;;;;5096640;28;20211;-70
2023/10/15 11:11:20;;;;;;;5.47;0.77;;;;;;;;;;5054257;28;20246;-71
2023/10/15 11:13:47;;;;;;;3.50;0.60;;;;;;;;;;5063199;28;20235;-70
2023/10/15 11:16:13;;;;;;;3.65;0.50;;;;;;;;;;5065848;28;20181;-70
2023/10/15 11:18:39;;;;;;;5.57;1.00;;;;;;;;;;5059965;28;20196;-71
2023/10/15 11:21:07;;;;;;;3.17;0.60;;;;;;;;;;5059997;28;20261;-71
2023/10/15 11:23:33;;;;;;;3.78;0.47;;;;;;;;;;5058679;28;20518;-70
2023/10/15 11:25:59;;;;;;;3.70;0.77;;;;;;;;;;5066843;28;20198;-71
2023/10/15 11:28:25;;;;;;;3.95;0.80;;;;;;;;;;5051299;28;20198;-70
2023/10/15 11:30:53;;;;;;;3.30;0.73;;;;;;;;;;5049602;28;20206;-70
2023/10/15 11:33:19;;;;;;;4.80;1.38;;;;;;;;;;5048447;28;20189;-71
2023/10/15 11:35:51;;;;;;;1.90;0.50;;;;;;;;;;5058961;28;20247;-70
2023/10/15 11:38:17;;;;;;;4.80;0.60;;;;;;;;;;5047999;28;20185;-71
2023/10/15 11:40:45;;;;;;;2.50;0.60;;;;;;;;;;5054339;28;20509;-70
2023/10/15 11:43:18;;;;;;;3.80;0.50;;;;;;;;;;5058979;28;20215;-72
2023/10/15 11:45:44;;;;;;;2.15;0.70;;;;;;;;;;5052770;28;20200;-71
2023/10/15 11:48:13;;;;;;;2.30;0.57;;;;;;;;;;5052823;28;20196;-70
2023/10/15 11:50:44;;;;;;;2.83;0.43;;;;;;;;;;5055418;28;20186;-71
2023/10/15 11:53:23;;;;;;;4.10;0.60;;;;;;;;;;5053149;28;20214;-71
2023/10/15 11:55:52;;;;;;;4.88;0.63;;;;;;;;;;5053107;28;20216;-70
2023/10/15 11:58:23;;;;;;;3.58;0.77;;;;;;;;;;5062240;28;20204;-69
2023/10/15 12:00:51;;;;;;;3.78;0.50;;;;;;;;;;5058768;28;20221;-71
2023/10/15 12:03:18;;;;;;;2.78;0.75;;;;;;;;;;5061375;28;20189;-71
2023/10/15 12:05:44;;;;;;;2.97;0.47;;;;;;;;;;5067063;28;20246;-69
2023/10/15 12:08:12;;;;;;;2.35;0.63;;;;;;;;;;5065405;28;20317;-71
2023/10/15 12:10:43;;;;;;;2.38;0.50;;;;;;;;;;5062668;28;20188;-71
2023/10/15 12:13:09;;;;;;;2.83;0.60;;;;;;;;;;5059225;28;20203;-69
2023/10/15 12:15:35;;;;;;;2.10;0.50;;;;;;;;;;5056242;28;20189;-71
2023/10/15 12:18:02;;;;;;;3.33;0.85;;;;;;;;;;5060797;28;20208;-72
2023/10/15 12:20:28;;;;;;;3.70;0.70;;;;;;;;;;5056176;28;20265;-71
2023/10/15 12:22:54;;;;;;;5.97;1.30;;;;;;;;;;5053201;28;20234;-71
2023/10/15 12:25:19;;;;;;;3.90;0.70;;;;;;;;;;5059043;28;20285;-70
2023/10/15 12:27:45;;;;;;;3.67;0.60;;;;;;;;;;5059596;28;20200;-71
2023/10/15 12:30:28;;;;;;;3.25;0.65;;;;;;;;;;5063027;28;20493;-70
2023/10/15 12:32:55;;;;;;;2.13;0.60;;;;;;;;;;5063533;28;20559;-70
2023/10/15 12:35:21;;;;;;;7.32;0.70;;;;;;;;;;5056782;28;20214;-71
2023/10/15 12:37:48;;;;;;;3.85;0.50;;;;;;;;;;5045437;28;20204;-73
2023/10/15 12:40:32;;;;;;;3.58;1.13;;;;;;;;;;5100399;28;20185;-77
2023/10/15 12:43:01;;;;;;;2.85;2.17;;;;;;;;;;5052053;28;20242;-77
2023/10/15 12:45:27;;;;;;;1.90;1.70;;;;;;;;;;5055949;28;20239;-74
2023/10/15 12:47:52;;;;;;;2.78;1.30;;;;;;;;;;5056584;28;20189;-76
2023/10/15 12:50:18;;;;;;;2.03;1.17;;;;;;;;;;5064392;28;20185;-76
2023/10/15 12:52:45;;;;;;;5.75;0.80;;;;;;;;;;5062852;28;20585;-75
2023/10/15 12:55:11;;;;;;;2.10;0.40;;;;;;;;;;5070548;28;20196;-77
2023/10/15 12:57:37;;;;;;;3.55;0.52;;;;;;;;;;5057978;28;20201;-76
2023/10/15 13:00:18;;;;;;;2.28;0.45;;;;;;;;;;5049075;28;20224;-76
2023/10/15 13:02:45;;;;;;;1.20;0.40;;;;;;;;;;5053565;28;20216;-78
2023/10/15 13:05:13;;;;;;;2.42;0.70;;;;;;;;;;5066594;28;20246;-76
2023/10/15 13:07:39;;;;;;;1.10;0.40;;;;;;;;;;5068326;28;20188;-75
2023/10/15 13:10:07;;;;;;;1.20;0.32;;;;;;;;;;5062523;28;20601;-73
2023/10/15 13:12:33;;;;;;;2.03;0.40;;;;;;;;;;5041096;28;20186;-71
2023/10/15 13:14:58;;;;;;;1.55;0.30;;;;;;;;;;5052911;28;20196;-72
2023/10/15 13:17:23;;;;;;;3.40;0.40;;;;;;;;;;5058517;28;20221;-72
2023/10/15 13:19:49;;;;;;;4.18;0.60;;;;;;;;;;5060981;28;20584;-73
2023/10/15 13:22:14;;;;;;;4.03;0.50;;;;;;;;;;5054932;28;20209;-70
2023/10/15 13:24:39;;;;;;;1.17;0.22;;;;;;;;;;5053930;28;20578;-72
2023/10/15 13:27:05;;;;;;;3.25;0.55;;;;;;;;;;5093595;28;20188;-72
2023/10/15 13:29:31;;;;;;;2.70;0.60;;;;;;;;;;5065968;28;20218;-72
2023/10/15 13:31:56;;;;;;;5.85;0.88;;;;;;;;;;5097836;28;20608;-73
2023/10/15 13:34:22;;;;;;;2.35;0.63;;;;;;;;;;5062227;28;20178;-73
2023/10/15 13:36:48;;;;;;;4.55;0.60;;;;;;;;;;5055933;28;20203;-73
2023/10/15 13:39:18;;;;;;;5.15;0.52;;;;;;;;;;5047100;28;20208;-73
2023/10/15 13:41:45;;;;;;;3.55;1.27;;;;;;;;;;5055608;28;20243;-73
2023/10/15 13:44:11;;;;;;;3.10;0.50;;;;;;;;;;5085542;28;20228;-72
2023/10/15 13:46:36;;;;;;;4.75;0.77;;;;;;;;;;5073461;28;20616;-71
2023/10/15 13:49:02;;;;;;;3.55;0.57;;;;;;;;;;5075433;28;20282;-71
2023/10/15 13:51:27;;;;;;;1.42;0.40;;;;;;;;;;5077533;28;20504;-71
2023/10/15 13:53:52;;;;;;;1.23;0.50;;;;;;;;;;5069411;28;20404;-72
2023/10/15 14:32:34;;;;;;;4.03;0.57;;;;;;;;;;4712701;27;9999704;-71
2023/10/15 14:35:00;;;;;;;2.30;0.68;;;;;;;;;;5058662;28;20238;-72
2023/10/15 14:37:26;;;;;;;5.55;0.60;;;;;;;;;;5056752;28;20186;-70
2023/10/15 14:39:51;;;;;;;6.28;0.70;;;;;;;;;;5058646;28;20188;-74
2023/10/15 14:42:18;;;;;;;18.88;1.63;;;;;;;;;;5064925;28;20623;-71
2023/10/15 14:44:43;;;;;;;6.07;0.70;;;;;;;;;;5063989;28;20196;-75
2023/10/15 14:47:08;;;;;;;3.03;0.60;;;;;;;;;;5076815;28;20528;-71
2023/10/15 14:49:34;;;;;;;7.78;1.05;;;;;;;;;;5064852;28;20197;-72
2023/10/15 14:51:59;;;;;;;4.53;0.90;;;;;;;;;;5064361;28;20212;-71
2023/10/15 14:54:25;;;;;;;5.57;1.00;;;;;;;;;;5092560;28;20189;-72
2023/10/15 14:56:51;;;;;;;3.28;0.55;;;;;;;;;;5061562;28;20570;-72
2023/10/15 14:59:17;;;;;;;8.43;0.75;;;;;;;;;;5061314;28;20242;-71
2023/10/15 15:01:43;;;;;;;3.38;0.65;;;;;;;;;;5071251;28;20255;-70
2023/10/15 15:04:09;;;;;;;4.40;0.80;;;;;;;;;;5094543;28;20196;-72
2023/10/15 15:06:35;;;;;;;5.32;0.82;;;;;;;;;;5063966;28;20560;-71
2023/10/15 15:09:03;;;;;;;6.10;1.25;;;;;;;;;;5051197;28;20181;-71
2023/10/15 15:11:28;;;;;;;3.55;0.90;;;;;;;;;;5062908;28;20224;-72
2023/10/15 15:13:54;;;;;;;2.75;0.70;;;;;;;;;;5066749;28;20199;-72
2023/10/15 15:16:19;;;;;;;4.60;0.80;;;;;;;;;;5098836;28;20181;-70
2023/10/15 15:18:44;;;;;;;3.17;0.70;;;;;;;;;;5075566;28;20270;-71
2023/10/15 15:21:10;;;;;;;3.85;0.90;;;;;;;;;;5065070;28;20185;-70
2023/10/15 15:23:35;;;;;;;3.65;0.95;;;;;;;;;;5064115;28;20208;-72
2023/10/15 15:26:02;;;;;;;3.08;1.38;;;;;;;;;;5061536;28;20205;-71
2023/10/15 15:28:29;;;;;;;3.30;0.75;;;;;;;;;;5064733;28;20276;-71
2023/10/15 15:30:55;;;;;;;3.53;0.90;;;;;;;;;;5055380;28;20232;-71
2023/10/15 15:33:21;;;;;;;3.53;0.90;;;;;;;;;;5074724;28;20285;-72
2023/10/15 15:35:50;;;;;;;6.60;0.70;;;;;;;;;;5061660;28;20260;-71
2023/10/15 15:38:16;;;;;;;2.78;0.90;;;;;;;;;;5073648;28;20276;-73
2023/10/15 15:40:50;;;;;;;4.53;1.48;;;;;;;;;;5054609;28;20289;-72
2023/10/15 15:43:16;;;;;;;5.50;1.15;;;;;;;;;;5048338;28;20190;-67